sensor_id;sensor_type;location;lat;lon;timestamp;P1;durP1;ratioP1;P2;durP2;ratioP2
63801;SDS011;49949;43.060;25.624;2022-09-01T00:00:47;30.92;;;15.10;;
63801;SDS011;49949;43.060;25.624;2022-09-01T00:03:14;30.40;;;15.48;;
63801;SDS011;49949;43.060;25.624;2022-09-01T00:05:47;32.30;;;14.98;;
63801;SDS011;49949;43.060;25.624;2022-09-01T00:08:13;31.58;;;14.20;;
63801;SDS011;49949;43.060;25.624;2022-09-01T00:10:39;28.40;;;14.07;;
63801;SDS011;49949;43.060;25.624;2022-09-01T00:13:06;25.40;;;13.70;;
63801;SDS011;49949;43.060;25.624;2022-09-01T00:15:33;21.33;;;13.25;;
63801;SDS011;49949;43.060;25.624;2022-09-01T00:17:59;30.30;;;13.57;;
63801;SDS011;49949;43.060;25.624;2022-09-01T00:20:26;24.13;;;14.15;;
63801;SDS011;49949;43.060;25.624;2022-09-01T00:22:52;24.77;;;14.35;;
63801;SDS011;49949;43.060;25.624;2022-09-01T00:25:18;24.83;;;13.93;;
63801;SDS011;49949;43.060;25.624;2022-09-01T00:27:45;24.83;;;15.30;;
63801;SDS011;49949;43.060;25.624;2022-09-01T00:30:13;21.95;;;13.40;;
63801;SDS011;49949;43.060;25.624;2022-09-01T00:32:39;25.65;;;14.02;;
63801;SDS011;49949;43.060;25.624;2022-09-01T00:35:05;29.27;;;13.02;;
63801;SDS011;49949;43.060;25.624;2022-09-01T00:37:32;25.65;;;13.45;;
63801;SDS011;49949;43.060;25.624;2022-09-01T00:39:58;26.73;;;15.20;;
63801;SDS011;49949;43.060;25.624;2022-09-01T00:42:24;30.05;;;16.05;;
63801;SDS011;49949;43.060;25.624;2022-09-01T00:44:49;25.52;;;15.45;;
63801;SDS011;49949;43.060;25.624;2022-09-01T00:47:15;42.47;;;16.50;;
63801;SDS011;49949;43.060;25.624;2022-09-01T00:49:42;28.10;;;15.48;;
63801;SDS011;49949;43.060;25.624;2022-09-01T00:52:14;24.30;;;14.55;;
63801;SDS011;49949;43.060;25.624;2022-09-01T00:54:44;33.05;;;14.35;;
63801;SDS011;49949;43.060;25.624;2022-09-01T00:57:14;26.17;;;14.55;;
63801;SDS011;49949;43.060;25.624;2022-09-01T01:00:03;33.38;;;15.80;;
63801;SDS011;49949;43.060;25.624;2022-09-01T01:02:35;27.27;;;13.02;;
63801;SDS011;49949;43.060;25.624;2022-09-01T01:05:03;34.40;;;13.70;;
63801;SDS011;49949;43.060;25.624;2022-09-01T01:07:30;25.05;;;14.13;;
63801;SDS011;49949;43.060;25.624;2022-09-01T01:10:00;25.63;;;13.77;;
63801;SDS011;49949;43.060;25.624;2022-09-01T01:12:27;30.80;;;14.73;;
63801;SDS011;49949;43.060;25.624;2022-09-01T01:14:54;26.75;;;13.30;;
63801;SDS011;49949;43.060;25.624;2022-09-01T01:17:21;27.40;;;14.45;;
63801;SDS011;49949;43.060;25.624;2022-09-01T01:19:49;31.80;;;15.10;;
63801;SDS011;49949;43.060;25.624;2022-09-01T01:22:56;24.33;;;15.20;;
63801;SDS011;49949;43.060;25.624;2022-09-01T01:28:20;28.38;;;12.93;;
63801;SDS011;49949;43.060;25.624;2022-09-01T01:30:52;24.85;;;13.90;;
63801;SDS011;49949;43.060;25.624;2022-09-01T01:33:28;30.83;;;13.55;;
63801;SDS011;49949;43.060;25.624;2022-09-01T01:35:58;22.50;;;14.45;;
63801;SDS011;49949;43.060;25.624;2022-09-01T01:38:26;30.52;;;15.98;;
63801;SDS011;49949;43.060;25.624;2022-09-01T01:40:54;26.70;;;16.27;;
63801;SDS011;49949;43.060;25.624;2022-09-01T01:43:21;30.42;;;14.52;;
63801;SDS011;49949;43.060;25.624;2022-09-01T01:45:51;27.48;;;13.57;;
63801;SDS011;49949;43.060;25.624;2022-09-01T01:48:19;24.00;;;14.23;;
63801;SDS011;49949;43.060;25.624;2022-09-01T01:50:50;37.03;;;14.30;;
63801;SDS011;49949;43.060;25.624;2022-09-01T01:53:17;30.08;;;14.25;;
63801;SDS011;49949;43.060;25.624;2022-09-01T01:55:43;29.17;;;14.18;;
63801;SDS011;49949;43.060;25.624;2022-09-01T01:58:13;31.42;;;14.70;;
63801;SDS011;49949;43.060;25.624;2022-09-01T02:00:40;37.47;;;16.30;;
63801;SDS011;49949;43.060;25.624;2022-09-01T02:03:08;27.10;;;15.48;;
63801;SDS011;49949;43.060;25.624;2022-09-01T02:05:36;25.60;;;14.40;;
63801;SDS011;49949;43.060;25.624;2022-09-01T02:08:04;34.03;;;15.32;;
63801;SDS011;49949;43.060;25.624;2022-09-01T02:10:35;26.15;;;13.98;;
63801;SDS011;49949;43.060;25.624;2022-09-01T02:13:06;26.88;;;14.50;;
63801;SDS011;49949;43.060;25.624;2022-09-01T02:15:34;28.55;;;16.05;;
63801;SDS011;49949;43.060;25.624;2022-09-01T02:18:07;39.35;;;19.98;;
63801;SDS011;49949;43.060;25.624;2022-09-01T02:20:33;39.70;;;15.75;;
63801;SDS011;49949;43.060;25.624;2022-09-01T02:22:59;32.20;;;14.90;;
63801;SDS011;49949;43.060;25.624;2022-09-01T02:25:33;31.95;;;12.88;;
63801;SDS011;49949;43.060;25.624;2022-09-01T02:28:00;33.75;;;13.73;;
63801;SDS011;49949;43.060;25.624;2022-09-01T02:30:27;61.97;;;34.83;;
63801;SDS011;49949;43.060;25.624;2022-09-01T02:32:54;23.00;;;12.77;;
63801;SDS011;49949;43.060;25.624;2022-09-01T02:35:22;22.23;;;11.93;;
63801;SDS011;49949;43.060;25.624;2022-09-01T02:37:53;30.92;;;11.07;;
63801;SDS011;49949;43.060;25.624;2022-09-01T02:40:22;23.48;;;10.73;;
63801;SDS011;49949;43.060;25.624;2022-09-01T02:42:47;23.17;;;12.00;;
63801;SDS011;49949;43.060;25.624;2022-09-01T02:45:17;21.08;;;11.48;;
63801;SDS011;49949;43.060;25.624;2022-09-01T02:47:44;28.73;;;12.98;;
63801;SDS011;49949;43.060;25.624;2022-09-01T02:50:12;26.60;;;11.65;;
63801;SDS011;49949;43.060;25.624;2022-09-01T02:52:41;19.42;;;12.38;;
63801;SDS011;49949;43.060;25.624;2022-09-01T02:55:07;26.40;;;13.30;;
63801;SDS011;49949;43.060;25.624;2022-09-01T02:57:33;26.63;;;12.43;;
63801;SDS011;49949;43.060;25.624;2022-09-01T03:00:00;25.52;;;13.98;;
63801;SDS011;49949;43.060;25.624;2022-09-01T03:02:27;29.90;;;15.23;;
63801;SDS011;49949;43.060;25.624;2022-09-01T03:04:53;27.38;;;14.68;;
63801;SDS011;49949;43.060;25.624;2022-09-01T03:07:20;48.47;;;15.38;;
63801;SDS011;49949;43.060;25.624;2022-09-01T03:09:48;26.60;;;13.05;;
63801;SDS011;49949;43.060;25.624;2022-09-01T03:12:14;27.65;;;13.88;;
63801;SDS011;49949;43.060;25.624;2022-09-01T03:14:39;29.58;;;16.10;;
63801;SDS011;49949;43.060;25.624;2022-09-01T03:17:05;27.10;;;16.13;;
63801;SDS011;49949;43.060;25.624;2022-09-01T03:19:31;34.63;;;15.68;;
63801;SDS011;49949;43.060;25.624;2022-09-01T03:22:08;37.65;;;16.15;;
63801;SDS011;49949;43.060;25.624;2022-09-01T03:24:34;31.05;;;15.20;;
63801;SDS011;49949;43.060;25.624;2022-09-01T03:27:00;29.58;;;13.57;;
63801;SDS011;49949;43.060;25.624;2022-09-01T03:29:26;31.60;;;12.48;;
63801;SDS011;49949;43.060;25.624;2022-09-01T03:31:51;21.52;;;12.73;;
63801;SDS011;49949;43.060;25.624;2022-09-01T03:34:17;22.13;;;12.82;;
63801;SDS011;49949;43.060;25.624;2022-09-01T03:36:47;28.45;;;12.88;;
63801;SDS011;49949;43.060;25.624;2022-09-01T03:39:17;25.08;;;13.18;;
63801;SDS011;49949;43.060;25.624;2022-09-01T03:41:43;35.17;;;14.65;;
63801;SDS011;49949;43.060;25.624;2022-09-01T03:44:10;35.38;;;15.32;;
63801;SDS011;49949;43.060;25.624;2022-09-01T03:46:40;23.65;;;13.13;;
63801;SDS011;49949;43.060;25.624;2022-09-01T03:49:07;32.22;;;13.35;;
63801;SDS011;49949;43.060;25.624;2022-09-01T03:51:37;24.90;;;13.30;;
63801;SDS011;49949;43.060;25.624;2022-09-01T03:54:03;35.50;;;14.90;;
63801;SDS011;49949;43.060;25.624;2022-09-01T03:56:28;29.85;;;14.57;;
63801;SDS011;49949;43.060;25.624;2022-09-01T03:58:55;26.35;;;14.70;;
63801;SDS011;49949;43.060;25.624;2022-09-01T04:01:24;39.13;;;17.08;;
63801;SDS011;49949;43.060;25.624;2022-09-01T04:03:51;41.72;;;18.67;;
63801;SDS011;49949;43.060;25.624;2022-09-01T04:06:16;47.47;;;18.85;;
63801;SDS011;49949;43.060;25.624;2022-09-01T04:08:44;40.33;;;16.67;;
63801;SDS011;49949;43.060;25.624;2022-09-01T04:11:15;44.40;;;22.42;;
63801;SDS011;49949;43.060;25.624;2022-09-01T04:13:42;32.50;;;16.73;;
63801;SDS011;49949;43.060;25.624;2022-09-01T04:19:06;32.83;;;15.55;;
63801;SDS011;49949;43.060;25.624;2022-09-01T04:21:48;25.02;;;15.98;;
63801;SDS011;49949;43.060;25.624;2022-09-01T04:24:15;33.97;;;16.15;;
63801;SDS011;49949;43.060;25.624;2022-09-01T04:26:43;31.15;;;16.60;;
63801;SDS011;49949;43.060;25.624;2022-09-01T04:29:11;38.00;;;16.02;;
63801;SDS011;49949;43.060;25.624;2022-09-01T04:31:37;28.48;;;16.35;;
63801;SDS011;49949;43.060;25.624;2022-09-01T04:34:05;33.85;;;17.50;;
63801;SDS011;49949;43.060;25.624;2022-09-01T04:36:35;35.88;;;16.85;;
63801;SDS011;49949;43.060;25.624;2022-09-01T04:39:02;34.88;;;15.95;;
63801;SDS011;49949;43.060;25.624;2022-09-01T04:41:33;44.70;;;16.40;;
63801;SDS011;49949;43.060;25.624;2022-09-01T04:44:00;36.30;;;15.95;;
63801;SDS011;49949;43.060;25.624;2022-09-01T04:46:29;46.17;;;17.05;;
63801;SDS011;49949;43.060;25.624;2022-09-01T04:48:57;24.02;;;14.95;;
63801;SDS011;49949;43.060;25.624;2022-09-01T04:51:24;24.33;;;15.40;;
63801;SDS011;49949;43.060;25.624;2022-09-01T04:53:52;23.20;;;16.20;;
63801;SDS011;49949;43.060;25.624;2022-09-01T04:56:19;20.08;;;14.23;;
63801;SDS011;49949;43.060;25.624;2022-09-01T04:58:47;26.13;;;13.05;;
63801;SDS011;49949;43.060;25.624;2022-09-01T05:01:15;26.20;;;12.48;;
63801;SDS011;49949;43.060;25.624;2022-09-01T05:03:42;20.30;;;13.25;;
63801;SDS011;49949;43.060;25.624;2022-09-01T05:06:13;20.42;;;11.20;;
63801;SDS011;49949;43.060;25.624;2022-09-01T05:08:41;27.38;;;11.82;;
63801;SDS011;49949;43.060;25.624;2022-09-01T05:11:10;23.92;;;11.82;;
63801;SDS011;49949;43.060;25.624;2022-09-01T05:13:38;32.35;;;11.50;;
63801;SDS011;49949;43.060;25.624;2022-09-01T05:16:05;29.88;;;11.32;;
63801;SDS011;49949;43.060;25.624;2022-09-01T05:18:37;16.73;;;10.98;;
63801;SDS011;49949;43.060;25.624;2022-09-01T05:21:06;31.88;;;9.82;;
63801;SDS011;49949;43.060;25.624;2022-09-01T05:23:38;28.92;;;10.73;;
63801;SDS011;49949;43.060;25.624;2022-09-01T05:26:04;20.60;;;9.82;;
63801;SDS011;49949;43.060;25.624;2022-09-01T05:28:41;29.13;;;10.13;;
63801;SDS011;49949;43.060;25.624;2022-09-01T05:31:07;38.35;;;11.75;;
63801;SDS011;49949;43.060;25.624;2022-09-01T05:33:34;23.52;;;10.55;;
63801;SDS011;49949;43.060;25.624;2022-09-01T05:36:01;24.77;;;10.20;;
63801;SDS011;49949;43.060;25.624;2022-09-01T05:38:32;29.37;;;11.57;;
63801;SDS011;49949;43.060;25.624;2022-09-01T05:41:02;25.63;;;10.15;;
63801;SDS011;49949;43.060;25.624;2022-09-01T05:43:32;20.00;;;10.18;;
63801;SDS011;49949;43.060;25.624;2022-09-01T05:46:00;16.42;;;9.55;;
63801;SDS011;49949;43.060;25.624;2022-09-01T05:48:30;21.25;;;10.05;;
63801;SDS011;49949;43.060;25.624;2022-09-01T05:50:58;15.57;;;9.10;;
63801;SDS011;49949;43.060;25.624;2022-09-01T05:53:25;25.27;;;9.60;;
63801;SDS011;49949;43.060;25.624;2022-09-01T05:55:52;30.20;;;9.95;;
63801;SDS011;49949;43.060;25.624;2022-09-01T05:58:21;21.50;;;9.07;;
63801;SDS011;49949;43.060;25.624;2022-09-01T06:00:49;21.48;;;10.00;;
63801;SDS011;49949;43.060;25.624;2022-09-01T06:03:18;17.80;;;8.93;;
63801;SDS011;49949;43.060;25.624;2022-09-01T06:05:44;20.52;;;10.02;;
63801;SDS011;49949;43.060;25.624;2022-09-01T06:08:13;14.65;;;9.52;;
63801;SDS011;49949;43.060;25.624;2022-09-01T06:10:39;27.95;;;10.50;;
63801;SDS011;49949;43.060;25.624;2022-09-01T06:13:09;20.73;;;9.05;;
63801;SDS011;49949;43.060;25.624;2022-09-01T06:15:35;17.65;;;9.00;;
63801;SDS011;49949;43.060;25.624;2022-09-01T06:18:05;14.35;;;8.75;;
63801;SDS011;49949;43.060;25.624;2022-09-01T06:20:32;24.58;;;9.63;;
63801;SDS011;49949;43.060;25.624;2022-09-01T06:22:58;14.80;;;8.52;;
63801;SDS011;49949;43.060;25.624;2022-09-01T06:25:23;20.23;;;9.52;;
63801;SDS011;49949;43.060;25.624;2022-09-01T06:27:54;20.58;;;9.23;;
63801;SDS011;49949;43.060;25.624;2022-09-01T06:30:21;25.67;;;8.85;;
63801;SDS011;49949;43.060;25.624;2022-09-01T06:32:50;16.17;;;8.70;;
63801;SDS011;49949;43.060;25.624;2022-09-01T06:35:19;25.75;;;8.55;;
63801;SDS011;49949;43.060;25.624;2022-09-01T06:37:46;24.58;;;8.80;;
63801;SDS011;49949;43.060;25.624;2022-09-01T06:40:13;18.10;;;8.70;;
63801;SDS011;49949;43.060;25.624;2022-09-01T06:42:43;24.60;;;8.40;;
63801;SDS011;49949;43.060;25.624;2022-09-01T06:45:12;19.55;;;8.77;;
63801;SDS011;49949;43.060;25.624;2022-09-01T06:47:39;21.17;;;8.20;;
63801;SDS011;49949;43.060;25.624;2022-09-01T06:50:08;38.10;;;8.05;;
63801;SDS011;49949;43.060;25.624;2022-09-01T06:52:35;14.30;;;7.28;;
63801;SDS011;49949;43.060;25.624;2022-09-01T06:55:04;10.48;;;6.30;;
63801;SDS011;49949;43.060;25.624;2022-09-01T06:57:30;10.88;;;6.50;;
63801;SDS011;49949;43.060;25.624;2022-09-01T06:59:56;15.10;;;6.95;;
63801;SDS011;49949;43.060;25.624;2022-09-01T07:02:22;16.08;;;6.82;;
63801;SDS011;49949;43.060;25.624;2022-09-01T07:04:48;13.73;;;6.53;;
63801;SDS011;49949;43.060;25.624;2022-09-01T07:07:15;11.95;;;6.57;;
63801;SDS011;49949;43.060;25.624;2022-09-01T07:09:40;15.48;;;7.20;;
63801;SDS011;49949;43.060;25.624;2022-09-01T07:12:07;19.15;;;7.57;;
63801;SDS011;49949;43.060;25.624;2022-09-01T07:14:32;15.25;;;7.38;;
63801;SDS011;49949;43.060;25.624;2022-09-01T07:16:59;27.80;;;7.07;;
63801;SDS011;49949;43.060;25.624;2022-09-01T07:19:25;23.77;;;7.10;;
63801;SDS011;49949;43.060;25.624;2022-09-01T07:21:51;10.45;;;7.00;;
63801;SDS011;49949;43.060;25.624;2022-09-01T07:24:17;15.20;;;6.93;;
63801;SDS011;49949;43.060;25.624;2022-09-01T07:26:44;12.95;;;6.88;;
63801;SDS011;49949;43.060;25.624;2022-09-01T07:29:14;15.40;;;7.28;;
63801;SDS011;49949;43.060;25.624;2022-09-01T07:31:41;12.52;;;6.70;;
63801;SDS011;49949;43.060;25.624;2022-09-01T07:34:09;22.30;;;7.20;;
63801;SDS011;49949;43.060;25.624;2022-09-01T07:36:38;12.27;;;6.85;;
63801;SDS011;49949;43.060;25.624;2022-09-01T07:39:05;12.00;;;6.93;;
63801;SDS011;49949;43.060;25.624;2022-09-01T07:41:31;16.25;;;7.20;;
63801;SDS011;49949;43.060;25.624;2022-09-01T07:43:59;15.57;;;7.28;;
63801;SDS011;49949;43.060;25.624;2022-09-01T07:46:27;10.82;;;6.60;;
63801;SDS011;49949;43.060;25.624;2022-09-01T07:48:57;13.25;;;6.45;;
63801;SDS011;49949;43.060;25.624;2022-09-01T07:51:23;25.40;;;7.57;;
63801;SDS011;49949;43.060;25.624;2022-09-01T07:53:50;18.45;;;7.20;;
63801;SDS011;49949;43.060;25.624;2022-09-01T07:56:18;15.98;;;6.85;;
63801;SDS011;49949;43.060;25.624;2022-09-01T07:58:46;8.65;;;6.13;;
63801;SDS011;49949;43.060;25.624;2022-09-01T08:01:17;12.40;;;6.82;;
63801;SDS011;49949;43.060;25.624;2022-09-01T08:03:46;19.90;;;7.00;;
63801;SDS011;49949;43.060;25.624;2022-09-01T08:06:15;12.70;;;6.03;;
63801;SDS011;49949;43.060;25.624;2022-09-01T08:08:43;19.60;;;6.82;;
63801;SDS011;49949;43.060;25.624;2022-09-01T08:11:14;18.52;;;6.40;;
63801;SDS011;49949;43.060;25.624;2022-09-01T08:13:42;14.32;;;5.65;;
63801;SDS011;49949;43.060;25.624;2022-09-01T08:16:07;13.80;;;5.60;;
63801;SDS011;49949;43.060;25.624;2022-09-01T08:18:34;14.63;;;6.20;;
63801;SDS011;49949;43.060;25.624;2022-09-01T08:21:04;15.80;;;6.65;;
63801;SDS011;49949;43.060;25.624;2022-09-01T08:23:31;16.15;;;6.68;;
63801;SDS011;49949;43.060;25.624;2022-09-01T08:25:57;17.10;;;6.35;;
63801;SDS011;49949;43.060;25.624;2022-09-01T08:28:23;14.23;;;7.47;;
63801;SDS011;49949;43.060;25.624;2022-09-01T08:30:48;14.27;;;6.60;;
63801;SDS011;49949;43.060;25.624;2022-09-01T08:33:14;13.07;;;6.93;;
63801;SDS011;49949;43.060;25.624;2022-09-01T08:35:42;17.80;;;6.13;;
63801;SDS011;49949;43.060;25.624;2022-09-01T08:38:10;19.60;;;7.03;;
63801;SDS011;49949;43.060;25.624;2022-09-01T08:40:36;15.90;;;6.57;;
63801;SDS011;49949;43.060;25.624;2022-09-01T08:45:49;17.23;;;6.75;;
63801;SDS011;49949;43.060;25.624;2022-09-01T08:48:21;15.00;;;6.43;;
63801;SDS011;49949;43.060;25.624;2022-09-01T08:54:20;11.52;;;5.97;;
63801;SDS011;49949;43.060;25.624;2022-09-01T08:57:05;15.95;;;5.85;;
63801;SDS011;49949;43.060;25.624;2022-09-01T08:59:35;13.27;;;5.60;;
63801;SDS011;49949;43.060;25.624;2022-09-01T09:10:05;11.65;;;5.43;;
63801;SDS011;49949;43.060;25.624;2022-09-01T09:15:31;10.98;;;4.55;;
63801;SDS011;49949;43.060;25.624;2022-09-01T09:21:08;7.28;;;4.45;;
63801;SDS011;49949;43.060;25.624;2022-09-01T09:23:40;11.10;;;4.60;;
63801;SDS011;49949;43.060;25.624;2022-09-01T09:26:09;10.15;;;4.72;;
63801;SDS011;49949;43.060;25.624;2022-09-01T09:28:35;12.05;;;4.90;;
63801;SDS011;49949;43.060;25.624;2022-09-01T09:34:02;13.68;;;4.72;;
63801;SDS011;49949;43.060;25.624;2022-09-01T09:36:40;10.15;;;4.85;;
63801;SDS011;49949;43.060;25.624;2022-09-01T09:39:13;11.48;;;4.70;;
63801;SDS011;49949;43.060;25.624;2022-09-01T09:41:42;10.15;;;4.50;;
63801;SDS011;49949;43.060;25.624;2022-09-01T09:44:26;12.23;;;5.50;;
63801;SDS011;49949;43.060;25.624;2022-09-01T09:46:55;10.35;;;4.38;;
63801;SDS011;49949;43.060;25.624;2022-09-01T09:51:57;16.23;;;4.78;;
63801;SDS011;49949;43.060;25.624;2022-09-01T09:54:40;12.55;;;5.10;;
63801;SDS011;49949;43.060;25.624;2022-09-01T09:57:22;9.55;;;4.30;;
63801;SDS011;49949;43.060;25.624;2022-09-01T10:02:24;5.47;;;3.55;;
63801;SDS011;49949;43.060;25.624;2022-09-01T10:04:51;12.45;;;4.88;;
63801;SDS011;49949;43.060;25.624;2022-09-01T10:07:36;14.90;;;4.50;;
63801;SDS011;49949;43.060;25.624;2022-09-01T10:10:06;17.25;;;4.63;;
63801;SDS011;49949;43.060;25.624;2022-09-01T10:12:51;11.57;;;4.18;;
63801;SDS011;49949;43.060;25.624;2022-09-01T10:15:21;10.85;;;4.28;;
63801;SDS011;49949;43.060;25.624;2022-09-01T10:17:50;14.13;;;4.38;;
63801;SDS011;49949;43.060;25.624;2022-09-01T10:20:22;20.63;;;4.65;;
63801;SDS011;49949;43.060;25.624;2022-09-01T10:22:50;12.05;;;3.88;;
63801;SDS011;49949;43.060;25.624;2022-09-01T10:25:18;13.18;;;4.70;;
63801;SDS011;49949;43.060;25.624;2022-09-01T10:27:47;10.30;;;4.85;;
63801;SDS011;49949;43.060;25.624;2022-09-01T10:30:19;18.88;;;4.82;;
63801;SDS011;49949;43.060;25.624;2022-09-01T10:32:50;9.40;;;4.72;;
63801;SDS011;49949;43.060;25.624;2022-09-01T10:35:25;15.10;;;4.38;;
63801;SDS011;49949;43.060;25.624;2022-09-01T10:37:56;17.48;;;4.30;;
63801;SDS011;49949;43.060;25.624;2022-09-01T10:40:35;10.00;;;4.35;;
63801;SDS011;49949;43.060;25.624;2022-09-01T10:43:26;19.55;;;3.83;;
63801;SDS011;49949;43.060;25.624;2022-09-01T10:45:59;24.00;;;4.45;;
63801;SDS011;49949;43.060;25.624;2022-09-01T10:48:56;9.85;;;4.05;;
63801;SDS011;49949;43.060;25.624;2022-09-01T10:53:49;12.93;;;4.15;;
63801;SDS011;49949;43.060;25.624;2022-09-01T10:56:19;9.60;;;3.63;;
63801;SDS011;49949;43.060;25.624;2022-09-01T11:09:38;10.80;;;3.90;;
63801;SDS011;49949;43.060;25.624;2022-09-01T11:14:58;15.45;;;4.20;;
63801;SDS011;49949;43.060;25.624;2022-09-01T11:17:33;9.85;;;4.53;;
63801;SDS011;49949;43.060;25.624;2022-09-01T11:22:43;13.10;;;3.80;;
63801;SDS011;49949;43.060;25.624;2022-09-01T11:28:44;11.07;;;3.67;;
63801;SDS011;49949;43.060;25.624;2022-09-01T11:31:21;14.07;;;3.88;;
63801;SDS011;49949;43.060;25.624;2022-09-01T11:34:09;6.75;;;3.83;;
63801;SDS011;49949;43.060;25.624;2022-09-01T11:47:22;11.15;;;3.40;;
63801;SDS011;49949;43.060;25.624;2022-09-01T11:49:53;11.43;;;3.45;;
63801;SDS011;49949;43.060;25.624;2022-09-01T11:52:28;12.63;;;3.92;;
63801;SDS011;49949;43.060;25.624;2022-09-01T11:54:56;9.15;;;3.00;;
63801;SDS011;49949;43.060;25.624;2022-09-01T11:57:28;15.70;;;3.40;;
63801;SDS011;49949;43.060;25.624;2022-09-01T12:00:00;16.80;;;3.55;;
63801;SDS011;49949;43.060;25.624;2022-09-01T12:02:42;11.88;;;3.90;;
63801;SDS011;49949;43.060;25.624;2022-09-01T12:07:50;12.60;;;3.33;;
63801;SDS011;49949;43.060;25.624;2022-09-01T12:13:01;7.90;;;2.88;;
63801;SDS011;49949;43.060;25.624;2022-09-01T12:15:33;16.47;;;3.00;;
63801;SDS011;49949;43.060;25.624;2022-09-01T12:18:18;10.98;;;2.63;;
63801;SDS011;49949;43.060;25.624;2022-09-01T12:20:46;7.30;;;3.00;;
63801;SDS011;49949;43.060;25.624;2022-09-01T12:23:16;9.73;;;3.20;;
63801;SDS011;49949;43.060;25.624;2022-09-01T12:25:42;12.80;;;2.85;;
63801;SDS011;49949;43.060;25.624;2022-09-01T12:28:09;15.73;;;3.40;;
63801;SDS011;49949;43.060;25.624;2022-09-01T12:30:35;7.78;;;2.80;;
63801;SDS011;49949;43.060;25.624;2022-09-01T12:33:04;12.48;;;3.58;;
63801;SDS011;49949;43.060;25.624;2022-09-01T12:35:34;10.98;;;3.90;;
63801;SDS011;49949;43.060;25.624;2022-09-01T12:40:47;8.57;;;3.10;;
63801;SDS011;49949;43.060;25.624;2022-09-01T12:45:55;19.25;;;4.10;;
63801;SDS011;49949;43.060;25.624;2022-09-01T12:51:02;14.45;;;3.30;;
63801;SDS011;49949;43.060;25.624;2022-09-01T12:53:32;9.88;;;3.60;;
63801;SDS011;49949;43.060;25.624;2022-09-01T12:56:00;14.65;;;3.60;;
63801;SDS011;49949;43.060;25.624;2022-09-01T12:58:27;8.68;;;3.33;;
63801;SDS011;49949;43.060;25.624;2022-09-01T13:00:59;9.98;;;3.10;;
63801;SDS011;49949;43.060;25.624;2022-09-01T13:03:25;16.80;;;3.87;;
63801;SDS011;49949;43.060;25.624;2022-09-01T13:05:53;11.80;;;3.60;;
63801;SDS011;49949;43.060;25.624;2022-09-01T13:08:23;13.23;;;3.90;;
63801;SDS011;49949;43.060;25.624;2022-09-01T13:10:53;18.85;;;3.58;;
63801;SDS011;49949;43.060;25.624;2022-09-01T13:13:26;13.45;;;3.72;;
63801;SDS011;49949;43.060;25.624;2022-09-01T13:15:53;15.20;;;3.28;;
63801;SDS011;49949;43.060;25.624;2022-09-01T13:18:22;284.67;;;15.10;;
63801;SDS011;49949;43.060;25.624;2022-09-01T13:20:49;10.43;;;3.33;;
63801;SDS011;49949;43.060;25.624;2022-09-01T13:23:17;16.63;;;3.80;;
63801;SDS011;49949;43.060;25.624;2022-09-01T13:25:44;21.92;;;3.70;;
63801;SDS011;49949;43.060;25.624;2022-09-01T13:28:10;16.08;;;4.13;;
63801;SDS011;49949;43.060;25.624;2022-09-01T13:30:37;25.63;;;4.43;;
63801;SDS011;49949;43.060;25.624;2022-09-01T13:33:03;12.10;;;4.00;;
63801;SDS011;49949;43.060;25.624;2022-09-01T13:35:29;30.25;;;6.15;;
63801;SDS011;49949;43.060;25.624;2022-09-01T13:37:55;14.77;;;5.07;;
63801;SDS011;49949;43.060;25.624;2022-09-01T13:40:21;46.33;;;9.07;;
63801;SDS011;49949;43.060;25.624;2022-09-01T13:42:51;41.28;;;8.82;;
63801;SDS011;49949;43.060;25.624;2022-09-01T13:45:19;18.35;;;5.50;;
63801;SDS011;49949;43.060;25.624;2022-09-01T13:47:48;37.37;;;6.33;;
63801;SDS011;49949;43.060;25.624;2022-09-01T13:50:15;38.05;;;10.30;;
63801;SDS011;49949;43.060;25.624;2022-09-01T13:52:43;29.63;;;7.35;;
63801;SDS011;49949;43.060;25.624;2022-09-01T13:55:11;17.75;;;6.65;;
63801;SDS011;49949;43.060;25.624;2022-09-01T13:57:39;14.90;;;6.10;;
63801;SDS011;49949;43.060;25.624;2022-09-01T14:00:06;18.17;;;8.70;;
63801;SDS011;49949;43.060;25.624;2022-09-01T14:02:35;27.10;;;10.35;;
63801;SDS011;49949;43.060;25.624;2022-09-01T14:05:02;27.73;;;10.48;;
63801;SDS011;49949;43.060;25.624;2022-09-01T14:07:28;22.05;;;9.18;;
63801;SDS011;49949;43.060;25.624;2022-09-01T14:09:56;20.58;;;8.88;;
63801;SDS011;49949;43.060;25.624;2022-09-01T14:12:22;17.08;;;9.10;;
63801;SDS011;49949;43.060;25.624;2022-09-01T14:14:48;28.58;;;10.35;;
63801;SDS011;49949;43.060;25.624;2022-09-01T14:17:14;24.42;;;14.18;;
63801;SDS011;49949;43.060;25.624;2022-09-01T14:19:40;27.25;;;11.98;;
63801;SDS011;49949;43.060;25.624;2022-09-01T14:22:06;29.85;;;14.15;;
63801;SDS011;49949;43.060;25.624;2022-09-01T14:24:35;31.30;;;12.57;;
63801;SDS011;49949;43.060;25.624;2022-09-01T14:27:01;20.40;;;13.10;;
63801;SDS011;49949;43.060;25.624;2022-09-01T14:29:27;27.33;;;13.48;;
63801;SDS011;49949;43.060;25.624;2022-09-01T14:31:53;30.00;;;15.07;;
63801;SDS011;49949;43.060;25.624;2022-09-01T14:34:21;25.55;;;13.80;;
63801;SDS011;49949;43.060;25.624;2022-09-01T14:36:48;37.10;;;14.27;;
63801;SDS011;49949;43.060;25.624;2022-09-01T14:39:17;24.13;;;15.27;;
63801;SDS011;49949;43.060;25.624;2022-09-01T14:41:42;28.20;;;14.15;;
63801;SDS011;49949;43.060;25.624;2022-09-01T14:44:08;28.23;;;13.93;;
63801;SDS011;49949;43.060;25.624;2022-09-01T14:46:34;20.92;;;10.93;;
63801;SDS011;49949;43.060;25.624;2022-09-01T14:49:01;23.73;;;13.77;;
63801;SDS011;49949;43.060;25.624;2022-09-01T14:51:29;22.02;;;13.07;;
63801;SDS011;49949;43.060;25.624;2022-09-01T14:53:55;25.95;;;14.63;;
63801;SDS011;49949;43.060;25.624;2022-09-01T14:56:21;32.88;;;17.10;;
63801;SDS011;49949;43.060;25.624;2022-09-01T14:58:49;38.05;;;17.98;;
63801;SDS011;49949;43.060;25.624;2022-09-01T15:01:22;22.67;;;13.10;;
63801;SDS011;49949;43.060;25.624;2022-09-01T15:03:49;28.35;;;14.73;;
63801;SDS011;49949;43.060;25.624;2022-09-01T15:06:16;76.05;;;22.98;;
63801;SDS011;49949;43.060;25.624;2022-09-01T15:08:43;33.88;;;16.92;;
63801;SDS011;49949;43.060;25.624;2022-09-01T15:11:10;31.52;;;14.32;;
63801;SDS011;49949;43.060;25.624;2022-09-01T15:13:38;24.90;;;15.02;;
63801;SDS011;49949;43.060;25.624;2022-09-01T15:16:04;27.65;;;13.82;;
63801;SDS011;49949;43.060;25.624;2022-09-01T15:18:36;24.00;;;14.30;;
63801;SDS011;49949;43.060;25.624;2022-09-01T15:21:03;26.42;;;14.50;;
63801;SDS011;49949;43.060;25.624;2022-09-01T15:23:29;24.08;;;12.70;;
63801;SDS011;49949;43.060;25.624;2022-09-01T15:25:55;31.00;;;13.98;;
63801;SDS011;49949;43.060;25.624;2022-09-01T15:28:22;38.95;;;16.60;;
63801;SDS011;49949;43.060;25.624;2022-09-01T15:30:48;29.50;;;13.52;;
63801;SDS011;49949;43.060;25.624;2022-09-01T15:33:15;34.78;;;16.67;;
63801;SDS011;49949;43.060;25.624;2022-09-01T15:35:41;43.85;;;18.75;;
63801;SDS011;49949;43.060;25.624;2022-09-01T15:38:08;26.33;;;15.93;;
63801;SDS011;49949;43.060;25.624;2022-09-01T15:40:37;27.35;;;15.13;;
63801;SDS011;49949;43.060;25.624;2022-09-01T15:43:05;32.37;;;16.33;;
63801;SDS011;49949;43.060;25.624;2022-09-01T15:45:31;40.05;;;19.05;;